CLMO2: North Canadian River

Data processed at Sat Aug 18 2018 23:24


All information presented herein is the property of the government of the United States of America and may be revised or deleted at any time without prior notice.
Dissemination of this information without the expressed written consent of the Public Affairs Office, Tulsa District U.S. Army Corps of Engineers is strictly prohibited.
These data are gathered electronically and, as presented, have not undergone any form of quality control. These data are not guaranteed to be valid or correct.
Go to home page.
Go to station list.

Upstream stations:

Downstream station:
Previous Day
Next Day
Current Day
    
SHEF ID:       CLMO2     North Canadian River near Calume
STATION TYPE:  

                STAGE  STAGE(2)  RIV-FLOW  WTR-TEMP   DIS-OXY        PH   CONDUCT  BAT-LOAD
                   ft        ft       cfs         F      mg/l        su   umho/cm      volt
              Ccp-Rev   Ccp-Rev   Ccp-Rev   Ccp-Rev   Ccp-Rev   Ccp-Rev   Ccp-Rev   Ccp-Rev
(US/Central)
08/18 00:00      ----      3.48      ----     82.72      6.40      8.50      1044     12.89
08/18 01:00      ----      3.48      ----     81.63      6.30      8.50      1051     12.81
08/18 02:00      ----      3.48      ----     80.53      6.28      8.40      1057     12.81
08/18 03:00      ----      3.49      ----     79.65      6.28      8.40      1065     12.81
08/18 04:00      ----      3.48      ----     78.73      6.33      8.40      1068     12.81
08/18 05:00      ----      3.48      ----     77.92      6.38      8.30      1072     12.73
08/18 06:00      ----      3.49      ----     77.18      6.43      8.30      1077     12.73
08/18 07:00      ----      3.49      ----     76.48      6.48      8.20      1084     12.73
08/18 08:00      ----      3.49      ----     75.99      6.72      8.20      1089     12.73
08/18 09:00      ----      3.48      ----     76.10      7.32      8.30      1097     12.81
08/18 10:00      ----      3.48      ----     77.25      8.28      8.40      1112     12.97
08/18 11:00      ----      3.49      ----     79.45      9.31      8.50      1118     13.21
08/18 12:00      ----      3.48      ----     82.38     10.30      8.60      1126     13.29
08/18 13:00      ----      3.48      ----     85.33     11.07      8.60      1133     13.60
08/18 14:00      ----      3.47      ----     88.00     11.45      8.70      1141     13.60
08/18 15:00      ----      3.45      ----     89.11     11.33      8.70      1136     13.44
08/18 16:00      ----      3.43      ----     88.25     10.72      8.70      1152     13.44
08/18 17:00      ----      3.43      ----     87.42      9.67      8.70      1159     13.21
08/18 18:00      ----      3.42      ----     87.10      9.34      8.70      1165     13.29
08/18 19:00      ----      3.41      ----     86.25      8.81      8.70      1172     13.21
08/18 20:00      ----      3.42      ----     85.32      8.06      8.70      1178     13.05
08/18 21:00      ----      3.43      ----     84.22      7.25      8.70      1194     12.89
08/18 22:00      ----      3.43      ----     83.16      6.81      8.60      1194     12.89
08/18 23:00      ----      ----      ----      ----      ----      ----      ----      ----